METAR Analyzer

一覧表示

Hello, Guest. (Login)

RJOO/ITM  -  大阪/伊丹

観測日時
2021-11-28 20:00 (UTC) (27分前)
気温
3
露点
1
湿数
2
相対湿度
86.7%
QNH
1030.8hPa
推定現地気圧
1029.3hPa
推定海面気圧
1030.8hPa
体感温度
-8
(無風時)
6.7
HI
1.6
気温前日比
+1
体感温度前日比
-2.7
HI前日比
+1.1
水平視程
>10000m
鉛直視程
データなし
雲底高度
No dense clouds
V/I
VMC (VFR)
RVR
No RVR data
卓越風
6kt from 320°
ガスト
No gust
降水
報告なし
その他の天気
報告なし
少しの(1/8) 積雲 @ 2500ft AGL

RJOO 282000Z 32006KT 9999 FEW025 03/01 Q1030 RMK 1CU025 A3044

RJBB/KIX  -  大阪/関西

観測日時
2021-11-28 20:00 (UTC) (27分前)
気温
6
露点
3
湿数
3
相対湿度
81%
QNH
1030hPa
推定現地気圧
1029.4hPa
推定海面気圧
1030.0hPa
体感温度
-5.3
(無風時)
9.4
HI
4.8
気温前日比
-4
体感温度前日比
-3
HI前日比
-4.1
水平視程
>10000m
鉛直視程
データなし
雲底高度
No dense clouds
V/I
VMC (VFR)
RVR
No RVR data
卓越風
8kt from 60°
ガスト
No gust
降水
報告なし
その他の天気
報告なし
目立った雲なし

RJBB 282000Z AUTO 06008KT 9999 NCD 06/03 Q1030 NOSIG

RJBE/UKB  -  神戸